Cap Bianco — A8OK5 — position and weather

sailwx.info

Track history (hours):
 
Tides and Currents Weather Stations Pressure Air Temp Water Temp Dewpoint Dewpoint Depression Visibility Wind Speed Wind Dir Waves Ship Positions

Cap Bianco

Last reported at 2014-Aug-01 23:33 UTC. Time now 2014-Aug-02 00:31 UTC.
Position S 23°58' W 046°18'.

Length 222 m; draft 9.2 m.

Type: Cargo ship. MMSI: 636091489.

Date/timePositionNaut miles runAvg speedWind from/ knotsBaromVisibWave heightAir tempDewpointWater temp
2014-Aug-01 23:33S 23°58' W 046°18'0 0.0
2014-Aug-01 22:33S 23°58' W 046°18'0 0.0
2014-Aug-01 21:30S 23°58' W 046°18'0 0.0
2014-Aug-01 20:33S 23°58' W 046°18'0 0.0
2014-Aug-01 19:33S 23°58' W 046°18'0 0.1
2014-Aug-01 18:33S 23°58' W 046°18'9 9.1
2014-Aug-01 17:33S 24°06' W 046°23'7 5.1
2014-Aug-01 16:15S 24°12' W 046°26'1 1.5
2014-Aug-01 15:33S 24°13' W 046°25'7 7.0
2014-Aug-01 14:33S 24°07' W 046°22'222 7.2
2014-Jul-31 07:33S 27°25' W 048°14'1919.3
2014-Jul-31 06:33S 27°43' W 048°20'  
2014-Jul-24 20:10S 27°58' W 048°03'1912.0
2014-Jul-24 18:33S 27°40' W 047°54'  
Track history (hours):
 
Tides and Currents Weather Stations Pressure Air Temp Water Temp Dewpoint Dewpoint Depression Visibility Wind Speed Wind Dir Waves Ship Positions

Cap Bianco

Last reported at 2014-Aug-01 23:33 UTC. Time now 2014-Aug-02 00:31 UTC.
Position S 23°58' W 046°18'.

Length 222 m; draft 9.2 m.

Type: Cargo ship. MMSI: 636091489.

Date/timePositionNaut miles runAvg speedWind from/ knotsBaromVisibWave heightAir tempDewpointWater temp
2014-Aug-01 23:33S 23°58' W 046°18'0 0.0
2014-Aug-01 22:33S 23°58' W 046°18'0 0.0
2014-Aug-01 21:30S 23°58' W 046°18'0 0.0
2014-Aug-01 20:33S 23°58' W 046°18'0 0.0
2014-Aug-01 19:33S 23°58' W 046°18'0 0.1
2014-Aug-01 18:33S 23°58' W 046°18'9 9.1
2014-Aug-01 17:33S 24°06' W 046°23'7 5.1
2014-Aug-01 16:15S 24°12' W 046°26'1 1.5
2014-Aug-01 15:33S 24°13' W 046°25'7 7.0
2014-Aug-01 14:33S 24°07' W 046°22'222 7.2
2014-Jul-31 07:33S 27°25' W 048°14'1919.3
2014-Jul-31 06:33S 27°43' W 048°20'  
2014-Jul-24 20:10S 27°58' W 048°03'1912.0
2014-Jul-24 18:33S 27°40' W 047°54'  

Dump ship's entire track history